METAR AND TAF INFORMATION
METAR FOR EKVG
ADDS - METARS form results

(1923 UTC 26 April 2018)
Data provider http://aviationweather.gov/adds/metars/
 
METAR text: EKVG 261920Z AUTO 33008KT 9999NDV BKN029/// 04/M02 Q1005
Conditions at: EKVG (SORVAAG/VAGAR , DK) observed 1920 UTC 26 April 2018
Temperature: 4.0°C (39°F)
Dewpoint: -2.0°C (28°F) [RH = 65%]
Pressure (altimeter): 29.68 inches Hg (1005.0 mb)
Winds: from the NNW (330 degrees) at 9 MPH (8 knots; 4.2 m/s)
Visibility: missing
Ceiling: 2900 feet AGL
Clouds: broken clouds at 2900 feet AGL
Weather: no significant weather observed at this time

METAR text: EKVG 261850Z AUTO 33007KT 280V020 9999NDV BKN027/// 04/M02 Q1005 RMK BKN031/// WIND 850FT 34006KT 300V030
Conditions at: EKVG (SORVAAG/VAGAR , DK) observed 1850 UTC 26 April 2018
Temperature: 4.0°C (39°F)
Dewpoint: -2.0°C (28°F) [RH = 65%]
Pressure (altimeter): 29.68 inches Hg (1005.0 mb)
Winds: from the NNW (330 degrees) at 8 MPH (7 knots; 3.6 m/s)
Visibility: missing
Ceiling: 2700 feet AGL
Clouds: broken clouds at 2700 feet AGL
Weather: no significant weather observed at this time

Forecast for: EKVG (SORVAAG/VAGAR , DK)
Text: TAF EKVG 261922Z 2619/2623 33010KT 9999 BKN030
Forecast period: 1900 to 2300 UTC 26 April 2018
Forecast type: FROM: standard forecast or significant change
Winds: from the NNW (330 degrees) at 12 MPH (10 knots; 5.2 m/s)
Visibility: 6 or more miles (10+ km)
Ceiling: 3000 feet AGL
Clouds: broken clouds at 3000 feet AGL
Weather: no significant weather forecast for this period

 AIRPORT MAP

 RUNWAY INFORMATION
Runway 13 Runway length 5902 ft Runway width 98 ft
Runway elevation 268 ft Runway displaced threshold 0 ft Runway heading 118
Runway 31 Runway length 5902 ft Runway width 98 ft
Runway elevation 252 ft Runway displaced threshold 0 ft Runway heading 298

 AIRPORT FREQUENCIES
Type AFIS Name AFIS Frequency 124.85 MHZ

 AIRPORT NEAR NAVIGATION AIDS
Type NDB Name Myggenes Frequency 337 KHZ
Type NDB Name Nolso Frequency 404 KHZ
Type NDB Name Vagar Frequency 348 KHZ



v2.6.1